Time;durP1;ratioP1;P1;durP2;ratioP2;P2;SDS_P1;SDS_P2;PMS_P1;PMS_P2;Temp;Humidity;BMP_temperature;BMP_pressure;BME280_temperature;BME280_humidity;BME280_pressure;Samples;Min_cycle;Max_cycle;Signal;HPM_P1;HPM_P2
2022/01/26 00:00:57;;;;;;;63.10;30.93;;;;;;;0.41;65.74;101685.31;18368396;32;20111;-71
2022/01/26 00:11:01;;;;;;;65.37;29.83;;;;;;;0.57;64.63;101680.19;18367825;32;20526;-71
2022/01/26 00:21:12;;;;;;;71.63;32.60;;;;;;;0.39;64.53;101674.06;18366644;32;20147;-71
2022/01/26 00:41:36;;;;;;;63.53;31.33;;;;;;;-0.50;66.04;101680.59;18365570;32;20458;-71
2022/01/26 00:51:39;;;;;;;65.17;30.47;;;;;;;-0.32;65.10;101680.00;18367093;32;20115;-71
2022/01/26 01:01:45;;;;;;;68.67;32.40;;;;;;;-0.48;65.44;101684.13;18366278;32;20086;-70
2022/01/26 01:11:55;;;;;;;65.40;28.40;;;;;;;-0.90;66.45;101686.63;18364587;32;20098;-70
2022/01/26 01:22:24;;;;;;;58.10;30.37;;;;;;;-0.45;64.07;101684.34;18364139;32;20431;-70
2022/01/26 01:32:35;;;;;;;67.20;30.03;;;;;;;-1.01;66.06;101685.00;18364902;32;20100;-70
2022/01/26 01:42:40;;;;;;;65.40;30.93;;;;;;;-1.26;66.86;101686.84;18373051;32;20151;-70
2022/01/26 01:52:43;;;;;;;67.17;29.43;;;;;;;-1.21;66.94;101676.03;18372002;32;20120;-70
2022/01/26 02:02:48;;;;;;;68.37;31.77;;;;;;;-0.94;66.22;101676.06;18371751;32;20093;-70
2022/01/26 02:12:55;;;;;;;70.47;30.37;;;;;;;-1.03;67.64;101669.56;18371474;32;20093;-71
2022/01/26 03:04:39;;;;;;;62.17;27.37;;;;;;;-0.59;66.14;101657.81;18354046;32;20106;-70
2022/01/26 03:14:48;;;;;;;65.63;30.60;;;;;;;-0.93;66.32;101655.66;18369723;32;20107;-70
2022/01/26 03:35:17;;;;;;;61.83;27.17;;;;;;;-1.19;66.63;101641.13;18368635;32;20138;-70
2022/01/26 03:45:21;;;;;;;65.13;29.10;;;;;;;-1.30;66.23;101641.31;18368578;32;20169;-70
2022/01/26 03:55:25;;;;;;;67.73;29.53;;;;;;;-1.31;66.15;101633.53;18367384;32;20109;-70
2022/01/26 04:05:29;;;;;;;74.60;33.23;;;;;;;-1.52;65.75;101638.09;18369202;32;20102;-70
2022/01/26 04:15:35;;;;;;;69.73;31.50;;;;;;;-1.73;65.87;101633.31;18367850;32;20104;-70
2022/01/26 04:25:42;;;;;;;64.70;29.80;;;;;;;-1.89;65.89;101641.62;18368326;32;20659;-70
2022/01/26 04:35:47;;;;;;;71.17;31.20;;;;;;;-2.40;66.79;101639.00;18366524;32;20103;-69
2022/01/26 04:45:52;;;;;;;74.93;31.37;;;;;;;-2.59;66.74;101640.25;18366280;32;20085;-69
2022/01/26 04:55:55;;;;;;;65.43;30.97;;;;;;;-2.15;65.36;101644.16;18365738;32;20393;-69
2022/01/26 05:05:59;;;;;;;79.07;34.23;;;;;;;-2.52;66.79;101642.44;18365692;32;20089;-69
2022/01/26 05:16:05;;;;;;;70.60;33.13;;;;;;;-2.95;67.33;101639.38;18373079;32;20101;-69
2022/01/26 05:26:10;;;;;;;69.53;33.17;;;;;;;-2.61;67.14;101635.81;18372621;32;20116;-69
2022/01/26 05:36:13;;;;;;;83.53;35.67;;;;;;;-2.61;67.46;101631.56;18372331;32;20089;-70
2022/01/26 05:46:25;;;;;;;72.00;32.73;;;;;;;-2.94;67.13;101647.16;18372317;32;20105;-69
2022/01/26 05:56:30;;;;;;;75.03;36.23;;;;;;;-3.18;67.56;101650.47;18371951;32;20093;-69
2022/01/26 06:06:34;;;;;;;73.87;33.97;;;;;;;-3.07;66.00;101649.59;18371574;32;20106;-69
2022/01/26 06:16:37;;;;;;;82.60;35.17;;;;;;;-3.23;67.21;101653.56;18371109;32;20116;-69
2022/01/26 06:26:42;;;;;;;84.30;37.27;;;;;;;-3.40;68.05;101659.09;18370295;32;20097;-69
2022/01/26 06:36:45;;;;;;;89.63;38.97;;;;;;;-3.26;67.64;101655.91;18370382;32;20081;-68
2022/01/26 06:46:59;;;;;;;92.07;42.70;;;;;;;-3.36;66.55;101661.09;18370211;32;20116;-69
2022/01/26 06:57:03;;;;;;;116.93;46.90;;;;;;;-3.32;66.54;101657.09;18371006;32;20113;-69
2022/01/26 07:07:08;;;;;;;112.70;44.80;;;;;;;-3.03;67.35;101650.69;18370603;32;20137;-69
2022/01/26 07:27:33;;;;;;;92.90;40.33;;;;;;;-1.04;63.08;101647.28;18107093;32;20111;-70
2022/01/26 07:37:36;;;;;;;81.50;36.80;;;;;;;-0.47;61.91;101659.38;18106847;32;20191;-70
2022/01/26 07:47:46;;;;;;;84.43;38.20;;;;;;;1.08;59.02;101639.44;18106515;32;20114;-70
2022/01/26 07:57:51;;;;;;;84.47;39.47;;;;;;;1.74;57.44;101634.47;18157724;32;20088;-70
2022/01/26 08:07:55;;;;;;;72.57;35.40;;;;;;;1.64;60.13;101639.91;18366774;32;20089;-69
2022/01/26 08:18:00;;;;;;;89.65;41.85;;;;;;;1.44;61.65;101637.13;18366963;32;20115;-70
2022/01/26 08:28:09;;;;;;;79.72;36.85;;;;;;;1.44;62.20;101626.84;18365825;32;20097;-70
2022/01/26 08:38:12;;;;;;;72.00;36.33;;;;;;;2.12;61.09;101611.53;18367848;32;20093;-70
2022/01/26 08:48:17;;;;;;;72.72;34.95;;;;;;;2.46;60.58;101626.16;18365777;32;20101;-70
2022/01/26 08:58:21;;;;;;;79.12;36.88;;;;;;;2.13;63.73;101615.88;18366085;32;20114;-71
2022/01/26 09:08:27;;;;;;;68.97;33.80;;;;;;;2.85;63.01;101624.59;18365231;32;20097;-71
2022/01/26 09:18:41;;;;;;;71.45;34.55;;;;;;;3.25;64.01;101615.34;18364670;32;20109;-71
2022/01/26 09:28:46;;;;;;;73.37;35.85;;;;;;;3.73;61.78;101610.66;18363777;32;20453;-71
2022/01/26 09:38:51;;;;;;;63.35;33.83;;;;;;;4.18;60.92;101606.59;18341419;32;20137;-70
2022/01/26 09:48:55;;;;;;;55.85;29.05;;;;;;;4.46;60.41;101592.28;18362454;32;20089;-71
2022/01/26 09:58:59;;;;;;;46.15;23.60;;;;;;;4.83;60.42;101604.13;18368684;32;20109;-71
2022/01/26 10:09:27;;;;;;;41.90;20.95;;;;;;;5.23;59.87;101604.84;18371472;32;20124;-71
2022/01/26 10:19:29;;;;;;;20.10;9.45;;;;;;;6.41;56.82;101586.66;18371065;32;20141;-71
2022/01/26 10:29:36;;;;;;;18.00;10.20;;;;;;;6.62;55.01;101568.31;18370843;32;20102;-72
2022/01/26 10:39:45;;;;;;;17.77;9.05;;;;;;;7.08;54.56;101554.19;18370355;32;20112;-72
2022/01/26 10:50:08;;;;;;;18.83;8.63;;;;;;;7.34;53.83;101533.34;18370281;32;20085;-72
2022/01/26 11:00:12;;;;;;;19.90;8.73;;;;;;;7.98;52.29;101534.22;18369944;32;20128;-74
2022/01/26 11:10:18;;;;;;;14.65;7.57;;;;;;;8.37;51.68;101523.09;18369441;32;20097;-75
2022/01/26 11:20:30;;;;;;;16.15;7.35;;;;;;;7.85;52.55;101518.28;18369629;32;20397;-74
2022/01/26 11:30:37;;;;;;;17.37;7.97;;;;;;;7.80;52.53;101514.69;18369485;32;20135;-74
2022/01/26 11:51:05;;;;;;;17.73;8.02;;;;;;;8.03;52.45;101507.50;18369057;32;20085;-75
2022/01/26 12:01:15;;;;;;;15.35;6.80;;;;;;;7.98;52.73;101501.28;18368680;32;20429;-75
2022/01/26 12:11:22;;;;;;;15.55;6.90;;;;;;;8.10;51.94;101492.94;18368201;32;20070;-75
2022/01/26 12:32:16;;;;;;;16.35;7.05;;;;;;;8.19;51.63;101474.06;18364553;32;81067;-75
2022/01/26 12:42:37;;;;;;;21.20;10.07;;;;;;;8.19;51.08;101461.06;18366459;32;20385;-75
2022/01/26 12:52:45;;;;;;;17.73;8.40;;;;;;;8.33;50.60;101453.59;18366376;32;20086;-74
2022/01/26 13:02:49;;;;;;;15.98;6.60;;;;;;;7.98;50.81;101451.03;18365400;32;20093;-75
2022/01/26 13:12:53;;;;;;;17.08;7.05;;;;;;;7.77;51.43;101462.59;18357013;32;20116;-75
2022/01/26 13:23:08;;;;;;;12.65;5.93;;;;;;;7.74;51.58;101449.53;18427581;32;20449;-76
2022/01/26 13:53:59;;;;;;;15.45;5.70;;;;;;;8.09;50.21;101443.47;18434374;32;20670;-75
2022/01/26 14:04:05;;;;;;;15.45;6.68;;;;;;;7.57;51.02;101444.75;18435490;32;20089;-75
2022/01/26 14:14:13;;;;;;;15.65;6.68;;;;;;;7.59;51.10;101448.31;18435540;32;20092;-75
2022/01/26 14:24:31;;;;;;;13.93;6.10;;;;;;;7.50;51.42;101442.84;18435434;32;20093;-76
2022/01/26 14:35:05;;;;;;;14.02;6.10;;;;;;;7.56;51.19;101445.59;18436077;32;20095;-75
2022/01/26 16:12:43;;;;;;;16.60;7.62;;;;;;;5.95;56.38;101485.69;18270117;32;20335;-73
2022/01/26 17:11:45;;;;;;;20.15;8.50;;;;;;;4.36;59.04;101499.59;18221796;32;20157;-72
2022/01/26 18:55:29;;;;;;;22.83;11.52;;;;;;;3.92;62.09;101479.72;18234184;32;20167;-75
2022/01/26 19:05:34;;;;;;;30.40;14.27;;;;;;;3.72;61.91;101469.44;18234428;32;20129;-75
2022/01/26 19:15:37;;;;;;;23.80;11.25;;;;;;;3.49;62.67;101460.69;18232762;32;20126;-75
2022/01/26 19:25:46;;;;;;;22.67;9.93;;;;;;;2.97;64.62;101472.12;18395022;32;20112;-75
2022/01/26 19:46:25;;;;;;;28.80;13.77;;;;;;;2.54;63.98;101481.31;18432952;32;20140;-72
2022/01/26 19:56:28;;;;;;;25.73;12.45;;;;;;;2.48;63.62;101493.06;18433678;32;20146;-72
2022/01/26 20:06:33;;;;;;;40.17;18.00;;;;;;;2.04;65.81;101502.94;18432426;32;20146;-72
2022/01/26 20:16:36;;;;;;;33.97;17.92;;;;;;;1.94;65.28;101504.19;18429584;32;20133;-72
2022/01/26 20:26:41;;;;;;;30.88;13.02;;;;;;;1.90;65.15;101503.94;18426593;32;20480;-72
2022/01/26 20:36:45;;;;;;;28.10;12.40;;;;;;;1.86;65.78;101517.47;18358694;32;20131;-72
2022/01/26 20:46:49;;;;;;;28.60;12.90;;;;;;;1.61;65.58;101505.88;18365141;32;20133;-72
2022/01/26 20:56:52;;;;;;;29.37;13.23;;;;;;;1.58;66.68;101505.72;18365291;32;20362;-72
2022/01/26 21:06:57;;;;;;;30.37;10.90;;;;;;;2.06;66.31;101501.31;18360196;32;20094;-72
2022/01/26 21:17:02;;;;;;;22.20;10.02;;;;;;;2.64;66.98;101491.25;18361296;32;20112;-72
2022/01/26 21:27:08;;;;;;;23.75;9.30;;;;;;;3.40;63.96;101476.63;18360739;32;20093;-72
2022/01/26 21:37:11;;;;;;;20.95;10.70;;;;;;;3.64;62.65;101473.38;18364034;32;20093;-72
2022/01/26 21:47:16;;;;;;;24.60;10.93;;;;;;;3.28;61.87;101473.50;18363499;32;20116;-72
2022/01/26 21:57:19;;;;;;;25.67;10.43;;;;;;;2.45;63.40;101471.41;18372151;32;20105;-72
2022/01/26 22:07:24;;;;;;;18.80;8.43;;;;;;;2.24;63.86;101477.28;18372173;32;20112;-72
2022/01/26 22:17:27;;;;;;;22.55;9.60;;;;;;;2.00;64.24;101454.69;18371547;32;20565;-72
2022/01/26 22:27:37;;;;;;;19.00;9.23;;;;;;;2.03;65.72;101443.63;18371207;32;20093;-72
2022/01/26 22:37:43;;;;;;;23.27;11.12;;;;;;;2.35;64.68;101444.31;18370724;32;20085;-72
2022/01/26 22:47:48;;;;;;;24.90;11.52;;;;;;;2.61;67.70;101431.81;18370459;32;20089;-72
2022/01/26 22:57:51;;;;;;;21.95;9.88;;;;;;;3.64;64.01;101444.06;18370226;32;20134;-72
2022/01/26 23:07:56;;;;;;;20.20;9.48;;;;;;;3.80;63.09;101430.16;18369518;32;20116;-73
2022/01/26 23:17:59;;;;;;;20.77;9.95;;;;;;;4.00;63.08;101421.53;18369861;32;20111;-75
2022/01/26 23:28:15;;;;;;;24.55;10.40;;;;;;;4.05;62.72;101413.06;18369671;32;20461;-75
2022/01/26 23:38:26;;;;;;;19.08;8.90;;;;;;;4.14;62.66;101424.66;18369123;32;20370;-74
